Time;durP1;ratioP1;P1;durP2;ratioP2;P2;SDS_P1;SDS_P2;PMS_P1;PMS_P2;Temp;Humidity;BMP_temperature;BMP_pressure;BME280_temperature;BME280_humidity;BME280_pressure;Samples;Min_cycle;Max_cycle;Signal;HPM_P1;HPM_P2
2022/07/11 00:00:07;;;;;;;5.65;2.10;;;;;;;20.16;55.79;102326.88;5084603;28;20059;-64
2022/07/11 00:02:36;;;;;;;8.70;3.28;;;;;;;20.15;55.94;102333.41;5088508;28;20268;-64
2022/07/11 00:05:05;;;;;;;5.55;2.65;;;;;;;20.15;55.87;102338.88;5091862;28;20048;-64
2022/07/11 00:07:33;;;;;;;10.60;2.92;;;;;;;20.14;55.83;102335.31;5080975;28;20073;-65
2022/07/11 00:10:00;;;;;;;7.93;2.25;;;;;;;20.14;55.70;102334.47;5098417;28;20057;-64
2022/07/11 00:12:28;;;;;;;6.28;2.75;;;;;;;20.11;56.00;102327.63;5079129;28;20092;-64
2022/07/11 00:14:56;;;;;;;5.93;2.50;;;;;;;20.10;56.43;102322.41;5094140;28;20044;-64
2022/07/11 00:17:24;;;;;;;4.43;2.10;;;;;;;20.04;56.78;102323.41;5102978;28;20090;-64
2022/07/11 00:19:54;;;;;;;7.78;2.35;;;;;;;20.05;56.83;102319.59;5092591;28;20181;-64
2022/07/11 00:22:22;;;;;;;5.15;2.03;;;;;;;20.03;56.67;102325.31;5078349;28;20082;-64
2022/07/11 00:24:50;;;;;;;9.27;3.03;;;;;;;20.02;56.66;102320.94;5079348;28;20068;-64
2022/07/11 00:27:18;;;;;;;5.32;2.33;;;;;;;20.02;56.90;102320.09;5097260;28;20428;-64
2022/07/11 00:29:46;;;;;;;8.70;2.67;;;;;;;20.00;56.58;102320.34;5083252;28;20048;-66
2022/07/11 00:32:14;;;;;;;7.70;2.42;;;;;;;19.99;56.65;102317.88;5082642;28;20071;-64
2022/07/11 00:34:42;;;;;;;8.93;2.40;;;;;;;19.98;56.70;102310.75;5085665;28;20079;-64
2022/07/11 00:37:11;;;;;;;6.22;2.78;;;;;;;19.97;56.83;102309.94;5081946;28;20068;-64
2022/07/11 00:39:38;;;;;;;8.75;2.50;;;;;;;19.95;56.80;102305.78;5094507;28;20063;-64
2022/07/11 00:42:06;;;;;;;4.55;2.17;;;;;;;19.97;56.73;102303.66;5088316;28;20058;-64
2022/07/11 00:44:36;;;;;;;5.55;2.63;;;;;;;19.97;56.61;102309.09;5076478;28;20083;-64
2022/07/11 00:47:04;;;;;;;7.13;2.47;;;;;;;19.95;56.89;102306.63;5101556;28;20075;-64
2022/07/11 00:49:32;;;;;;;6.85;2.90;;;;;;;19.90;56.80;102295.63;5081936;28;20045;-64
2022/07/11 00:52:00;;;;;;;9.35;2.78;;;;;;;19.94;56.81;102306.88;5085030;28;20076;-64
2022/07/11 00:54:30;;;;;;;6.68;2.33;;;;;;;19.93;56.96;102302.50;5094794;28;20041;-64
2022/07/11 00:56:58;;;;;;;5.18;2.40;;;;;;;19.92;56.90;102307.13;5077303;28;20044;-64
2022/07/11 00:59:28;;;;;;;5.75;2.60;;;;;;;19.92;56.80;102314.47;5083616;28;20079;-64
2022/07/11 01:01:55;;;;;;;6.50;2.40;;;;;;;19.91;57.03;102307.38;5087628;28;20105;-64
2022/07/11 01:04:25;;;;;;;7.22;2.75;;;;;;;19.90;56.92;102309.28;5082251;28;20397;-64
2022/07/11 01:06:53;;;;;;;6.32;2.63;;;;;;;19.89;57.08;102298.59;5088667;28;20055;-63
2022/07/11 01:09:21;;;;;;;8.75;2.80;;;;;;;19.88;57.13;102303.25;5082603;28;20054;-64
2022/07/11 01:11:50;;;;;;;8.63;3.22;;;;;;;19.88;57.09;102305.13;5085698;28;20064;-64
2022/07/11 01:14:18;;;;;;;8.57;2.45;;;;;;;19.87;57.19;102304.31;5083547;28;20051;-64
2022/07/11 01:16:46;;;;;;;5.40;2.78;;;;;;;19.84;57.23;102296.63;5078137;28;20114;-63
2022/07/11 01:19:13;;;;;;;7.38;2.50;;;;;;;19.85;57.27;102300.19;5093156;28;20048;-64
2022/07/11 01:21:45;;;;;;;6.80;2.58;;;;;;;19.82;57.22;102294.13;5095758;28;20516;-64
2022/07/11 01:24:14;;;;;;;10.57;3.40;;;;;;;19.80;57.25;102296.28;5087023;28;20040;-64
2022/07/11 01:26:51;;;;;;;6.38;2.67;;;;;;;19.82;57.38;102299.59;5081270;28;20039;-64
2022/07/11 01:29:19;;;;;;;4.93;2.70;;;;;;;19.80;57.16;102296.28;5085126;28;20048;-64
2022/07/11 01:31:46;;;;;;;6.30;2.85;;;;;;;19.80;57.04;102290.84;5080807;28;20048;-64
2022/07/11 01:34:14;;;;;;;5.43;2.28;;;;;;;19.80;57.29;102298.19;5084487;28;20036;-64
2022/07/11 01:36:43;;;;;;;5.80;2.28;;;;;;;19.78;57.31;102292.16;5077703;28;20067;-64
2022/07/11 01:39:10;;;;;;;6.82;2.85;;;;;;;19.77;57.15;102290.50;5088703;28;20053;-64
2022/07/11 01:41:39;;;;;;;9.68;2.80;;;;;;;19.74;57.25;102291.81;5085834;28;20059;-64
2022/07/11 01:44:07;;;;;;;8.68;3.13;;;;;;;19.75;57.31;102290.75;5077153;28;20461;-64
2022/07/11 01:46:35;;;;;;;6.32;2.60;;;;;;;19.75;57.17;102292.66;5090015;28;20048;-64
2022/07/11 01:49:03;;;;;;;6.85;2.67;;;;;;;19.72;57.22;102288.53;5094626;28;20047;-64
2022/07/11 01:51:31;;;;;;;6.07;3.05;;;;;;;19.72;57.15;102291.25;5102661;28;20063;-64
2022/07/11 01:53:59;;;;;;;6.40;2.95;;;;;;;19.71;57.36;102297.78;5083521;28;20037;-64
2022/07/11 01:56:29;;;;;;;6.43;2.92;;;;;;;19.69;57.73;102301.81;5087697;28;20315;-64
2022/07/11 01:59:01;;;;;;;5.00;2.97;;;;;;;19.66;57.57;102297.69;5081927;28;20045;-64
2022/07/11 02:01:29;;;;;;;8.20;3.08;;;;;;;19.65;57.60;102292.47;5077038;28;20059;-64
2022/07/11 02:03:57;;;;;;;4.68;2.63;;;;;;;19.64;57.69;102302.56;5083570;28;20055;-64
2022/07/11 02:06:25;;;;;;;5.03;2.58;;;;;;;19.64;57.61;102309.94;5086884;28;20045;-64
2022/07/11 02:08:53;;;;;;;5.47;2.70;;;;;;;19.60;57.58;102300.59;5086633;28;20110;-64
2022/07/11 02:11:21;;;;;;;5.95;2.70;;;;;;;19.61;57.57;102302.25;5083546;28;20056;-64
2022/07/11 02:13:48;;;;;;;5.38;3.13;;;;;;;19.60;57.51;102301.41;5080989;28;20505;-64
2022/07/11 02:16:18;;;;;;;6.32;2.70;;;;;;;19.60;57.44;102297.84;5079496;28;20066;-63
2022/07/11 02:18:46;;;;;;;7.75;2.75;;;;;;;19.58;57.51;102297.28;5089410;28;20136;-63
2022/07/11 02:21:13;;;;;;;5.07;2.53;;;;;;;19.57;57.59;102301.91;5096134;28;20082;-63
2022/07/11 02:23:41;;;;;;;5.85;2.80;;;;;;;19.56;57.69;102302.97;5089649;28;20055;-63
2022/07/11 02:26:10;;;;;;;5.65;2.55;;;;;;;19.55;57.64;102297.75;5092248;28;20079;-63
2022/07/11 02:28:37;;;;;;;5.40;2.88;;;;;;;19.55;57.52;102300.50;5096626;28;20425;-63
2022/07/11 02:31:05;;;;;;;6.05;3.05;;;;;;;19.53;57.73;102303.47;5106871;28;20067;-63
2022/07/11 02:33:34;;;;;;;8.93;3.22;;;;;;;19.53;57.88;102292.56;5093894;28;20397;-63
2022/07/11 02:36:02;;;;;;;7.20;3.40;;;;;;;19.52;58.05;102296.34;5104392;28;20056;-63
2022/07/11 02:38:30;;;;;;;4.80;2.72;;;;;;;19.50;57.79;102299.28;5112787;28;20075;-63
2022/07/11 02:40:58;;;;;;;7.35;3.08;;;;;;;19.48;57.81;102296.00;5104578;28;20044;-64
2022/07/11 02:43:26;;;;;;;8.43;3.47;;;;;;;19.49;57.72;102292.19;5113415;28;20059;-64
2022/07/11 02:45:54;;;;;;;4.65;3.00;;;;;;;19.49;57.86;102299.53;5117048;28;20082;-64
2022/07/11 02:48:22;;;;;;;5.20;2.85;;;;;;;19.48;57.70;102298.72;5121520;28;20052;-64
2022/07/11 02:50:51;;;;;;;7.13;3.13;;;;;;;19.47;57.76;102293.50;5108018;28;20084;-64
2022/07/11 02:53:19;;;;;;;8.25;3.83;;;;;;;19.47;57.77;102293.50;5103220;28;20079;-64
2022/07/11 02:55:48;;;;;;;5.60;3.28;;;;;;;19.45;57.95;102292.94;5107299;28;20062;-64
2022/07/11 02:58:16;;;;;;;6.43;3.85;;;;;;;19.44;57.97;102291.28;5108813;28;20044;-64
2022/07/11 03:00:43;;;;;;;6.38;3.10;;;;;;;19.43;58.13;102298.63;5105667;28;20102;-64
2022/07/11 03:03:11;;;;;;;6.07;2.63;;;;;;;19.41;57.98;102292.59;5117537;28;20076;-64
2022/07/11 03:05:39;;;;;;;5.28;2.80;;;;;;;19.41;58.03;102305.41;5111712;28;20047;-64
2022/07/11 03:08:08;;;;;;;6.18;3.40;;;;;;;19.38;58.29;102300.44;5113822;28;20105;-64
2022/07/11 03:10:36;;;;;;;6.03;3.13;;;;;;;19.37;58.45;102298.78;5111813;28;20147;-64
2022/07/11 03:13:04;;;;;;;9.80;4.32;;;;;;;19.35;58.44;102299.03;5114301;28;20066;-64
2022/07/11 03:15:32;;;;;;;11.40;3.92;;;;;;;19.35;58.67;102296.31;5104499;28;20087;-64
2022/07/11 03:17:59;;;;;;;6.90;3.72;;;;;;;19.34;58.68;102302.00;5115462;28;20059;-64
2022/07/11 03:20:27;;;;;;;5.28;3.58;;;;;;;19.32;58.90;102307.69;5116540;28;20044;-64
2022/07/11 03:22:55;;;;;;;9.88;3.45;;;;;;;19.31;58.60;102306.03;5119953;28;20043;-64
2022/07/11 03:25:24;;;;;;;8.95;3.55;;;;;;;19.31;58.72;102307.94;5111872;28;20051;-64
2022/07/11 03:27:52;;;;;;;6.50;3.08;;;;;;;19.30;58.77;102309.84;5117286;28;20134;-64
2022/07/11 03:30:19;;;;;;;6.47;3.85;;;;;;;19.27;58.70;102312.22;5110770;28;20086;-64
2022/07/11 03:32:47;;;;;;;8.23;3.20;;;;;;;19.30;58.71;102320.75;5101946;28;20074;-64
2022/07/11 03:38:01;;;;;;;5.38;3.10;;;;;;;19.29;58.42;102313.63;5089787;28;20083;-64
2022/07/11 03:40:30;;;;;;;5.80;2.88;;;;;;;19.29;58.46;102310.91;5081263;28;20055;-64
2022/07/11 03:42:58;;;;;;;5.80;3.38;;;;;;;19.26;58.40;102308.66;5079362;28;20048;-64
2022/07/11 03:45:25;;;;;;;5.38;3.17;;;;;;;19.28;58.06;102311.97;5095915;28;20044;-63
2022/07/11 03:47:53;;;;;;;9.90;3.72;;;;;;;19.27;58.34;102310.31;5097139;28;20086;-63
2022/07/11 03:50:21;;;;;;;7.03;3.28;;;;;;;19.27;58.27;102312.22;5087912;28;20451;-63
2022/07/11 03:52:49;;;;;;;8.27;3.70;;;;;;;19.27;58.08;102314.94;5081361;28;20083;-63
2022/07/11 03:55:17;;;;;;;8.25;2.78;;;;;;;19.28;58.18;102313.88;5086882;28;20071;-64
2022/07/11 03:57:46;;;;;;;5.72;3.58;;;;;;;19.25;58.13;102312.47;5086592;28;20068;-63
2022/07/11 04:00:15;;;;;;;8.48;3.55;;;;;;;19.25;58.20;102323.38;5084058;28;20421;-63
2022/07/11 04:02:43;;;;;;;7.85;3.83;;;;;;;19.25;58.38;102319.81;5091617;28;20455;-63
2022/07/11 04:05:11;;;;;;;6.35;3.20;;;;;;;19.19;58.27;102308.81;5082433;28;20047;-63
2022/07/11 04:07:38;;;;;;;7.70;3.20;;;;;;;19.19;58.35;102308.00;5102024;28;20086;-63
2022/07/11 04:10:07;;;;;;;5.68;3.30;;;;;;;19.23;58.47;102308.34;5089230;28;20072;-63
2022/07/11 04:12:35;;;;;;;6.93;3.35;;;;;;;19.22;58.41;102312.13;5083596;28;20055;-63
2022/07/11 04:15:06;;;;;;;7.05;3.42;;;;;;;19.16;58.52;102311.22;5083751;28;20048;-64
2022/07/11 04:17:34;;;;;;;6.28;3.00;;;;;;;19.20;58.31;102320.56;5100833;28;20052;-64
2022/07/11 04:20:02;;;;;;;6.53;3.40;;;;;;;19.19;58.57;102311.53;5100656;28;20189;-64
2022/07/11 04:22:30;;;;;;;6.43;2.92;;;;;;;19.18;58.48;102312.63;5088564;28;20048;-64
2022/07/11 04:24:57;;;;;;;7.78;3.28;;;;;;;19.14;58.38;102303.28;5083119;28;20039;-64
2022/07/11 04:27:26;;;;;;;6.25;2.95;;;;;;;19.18;58.54;102304.44;5093236;28;20048;-64
2022/07/11 04:29:57;;;;;;;7.15;3.65;;;;;;;19.17;58.43;102305.50;5090782;28;20124;-64
2022/07/11 04:32:26;;;;;;;7.53;3.35;;;;;;;19.18;58.57;102309.06;5083033;28;20049;-64
2022/07/11 04:34:54;;;;;;;6.70;3.38;;;;;;;19.17;58.34;102304.69;5076446;28;20513;-64
2022/07/11 04:37:22;;;;;;;6.75;3.58;;;;;;;19.15;58.46;102298.66;5084809;28;20079;-64
2022/07/11 04:39:50;;;;;;;4.72;3.30;;;;;;;19.17;58.42;102312.84;5094783;28;20082;-64
2022/07/11 04:42:18;;;;;;;8.18;3.45;;;;;;;19.16;58.23;102309.31;5073377;28;20055;-64
2022/07/11 04:44:45;;;;;;;5.78;3.17;;;;;;;19.11;58.36;102301.03;5084602;28;20150;-64
2022/07/11 04:47:13;;;;;;;6.45;3.13;;;;;;;19.16;58.28;102312.03;5089114;28;20053;-64
2022/07/11 04:49:46;;;;;;;7.35;2.90;;;;;;;19.16;58.52;102313.94;5094635;28;20047;-64
2022/07/11 04:52:14;;;;;;;8.45;3.67;;;;;;;19.16;58.96;102333.00;5084389;28;20143;-64
2022/07/11 04:54:42;;;;;;;7.20;3.45;;;;;;;19.16;58.72;102324.84;5103884;28;20043;-64
2022/07/11 04:57:09;;;;;;;6.93;3.53;;;;;;;19.02;59.09;102305.25;5081985;28;20044;-63
2022/07/11 04:59:38;;;;;;;4.05;2.80;;;;;;;19.16;58.72;102331.09;5076877;28;20088;-64
2022/07/11 05:02:06;;;;;;;6.55;3.28;;;;;;;19.16;58.81;102322.94;5074893;28;20087;-64
2022/07/11 05:04:34;;;;;;;7.78;3.33;;;;;;;19.16;58.90;102325.66;5089159;28;20045;-64
2022/07/11 05:07:03;;;;;;;5.40;3.25;;;;;;;19.16;58.81;102322.09;5081953;28;20041;-64
2022/07/11 05:09:31;;;;;;;8.23;3.65;;;;;;;19.15;59.43;102326.72;5083246;28;20059;-65
2022/07/11 05:11:59;;;;;;;5.28;3.13;;;;;;;19.14;59.38;102332.44;5075587;28;20059;-66
2022/07/11 05:14:26;;;;;;;6.30;3.53;;;;;;;19.14;59.15;102329.69;5071679;28;20501;-65
2022/07/11 05:16:54;;;;;;;5.22;3.05;;;;;;;19.13;59.08;102323.41;5085716;28;20061;-64
2022/07/11 05:19:22;;;;;;;6.95;3.15;;;;;;;19.14;59.24;102335.16;5077304;28;20045;-64
2022/07/11 05:21:50;;;;;;;7.07;2.95;;;;;;;19.14;59.44;102348.78;5082484;28;20052;-63
2022/07/11 05:24:19;;;;;;;8.75;2.97;;;;;;;19.10;59.43;102340.25;5068176;28;20060;-65
2022/07/11 05:26:47;;;;;;;8.25;4.03;;;;;;;19.09;59.82;102345.94;5085937;28;20047;-64
2022/07/11 05:29:15;;;;;;;7.35;3.15;;;;;;;19.08;60.41;102347.03;5092870;28;20070;-64
2022/07/11 05:31:49;;;;;;;4.50;3.38;;;;;;;19.07;60.33;102340.75;5072732;28;20045;-65
2022/07/11 05:34:17;;;;;;;7.68;3.13;;;;;;;19.08;60.33;102357.91;5076987;28;20053;-65
2022/07/11 05:36:45;;;;;;;13.45;3.33;;;;;;;19.05;60.32;102345.63;5066342;28;20052;-62
2022/07/11 05:39:13;;;;;;;6.88;3.30;;;;;;;19.08;60.68;102345.13;5083144;28;20051;-64
2022/07/11 05:41:42;;;;;;;5.80;2.83;;;;;;;19.04;60.67;102334.97;5078622;28;20075;-62
2022/07/11 05:44:10;;;;;;;4.75;2.97;;;;;;;19.06;60.58;102343.75;5073327;28;20084;-61
2022/07/11 05:46:39;;;;;;;8.18;3.53;;;;;;;19.06;60.86;102343.75;5076132;28;20045;-59
2022/07/11 05:49:08;;;;;;;8.10;3.25;;;;;;;19.05;60.56;102345.63;5085161;28;20118;-63
2022/07/11 05:51:36;;;;;;;7.60;2.70;;;;;;;19.06;60.66;102347.28;5083463;28;20049;-63
2022/07/11 05:54:04;;;;;;;6.63;3.00;;;;;;;19.06;60.28;102344.56;5081490;28;20048;-63
2022/07/11 05:56:31;;;;;;;5.85;3.40;;;;;;;19.07;60.81;102351.66;5072098;28;20080;-62
2022/07/11 05:59:00;;;;;;;7.55;3.60;;;;;;;19.02;60.73;102353.47;5078931;28;20049;-62
2022/07/11 06:01:31;;;;;;;6.32;3.15;;;;;;;19.04;61.06;102343.16;5081034;28;20052;-61
2022/07/11 06:04:03;;;;;;;5.78;2.67;;;;;;;19.03;61.54;102345.06;5080826;28;20052;-61
2022/07/11 06:06:32;;;;;;;8.73;2.78;;;;;;;19.03;60.68;102355.94;4721426;28;10000462;-63
2022/07/11 06:08:58;;;;;;;9.10;2.88;;;;;;;19.04;61.36;102354.06;5079973;28;20059;-64
2022/07/11 06:11:26;;;;;;;5.97;3.25;;;;;;;19.03;61.60;102363.28;5079569;28;20044;-64
2022/07/11 06:13:54;;;;;;;8.55;3.35;;;;;;;19.03;61.41;102361.41;5081985;28;20052;-65
2022/07/11 06:16:28;;;;;;;6.63;3.92;;;;;;;19.05;61.07;102366.63;5078579;28;20102;-65
2022/07/11 06:18:56;;;;;;;10.38;2.53;;;;;;;19.05;61.34;102366.63;5084762;28;20048;-65
2022/07/11 06:21:24;;;;;;;7.90;2.90;;;;;;;19.06;61.44;102366.38;5064767;28;20103;-66
2022/07/11 06:23:52;;;;;;;7.55;3.05;;;;;;;19.06;61.22;102366.38;5069783;28;20044;-65
2022/07/11 06:26:20;;;;;;;7.82;2.97;;;;;;;19.06;61.39;102368.25;5065864;28;20110;-65
2022/07/11 06:28:48;;;;;;;7.65;3.38;;;;;;;19.03;61.83;102371.47;5080723;28;20051;-64
2022/07/11 06:31:16;;;;;;;5.95;2.58;;;;;;;19.03;61.59;102380.47;5071863;28;20056;-64
2022/07/11 06:33:45;;;;;;;4.57;2.80;;;;;;;19.04;61.59;102375.84;5068444;28;20052;-65
2022/07/11 06:36:19;;;;;;;3.70;2.38;;;;;;;19.04;61.39;102373.13;5087197;28;20083;-65
2022/07/11 06:38:46;;;;;;;8.70;2.65;;;;;;;19.05;61.40;102377.50;5084250;28;20084;-65
2022/07/11 06:41:14;;;;;;;7.03;2.60;;;;;;;19.06;61.60;102373.72;5062442;28;20056;-64
2022/07/11 06:43:42;;;;;;;8.52;3.10;;;;;;;18.94;61.26;102351.13;5067433;28;20049;-65
2022/07/11 06:46:11;;;;;;;7.05;3.00;;;;;;;19.06;61.14;102371.81;5080756;28;20072;-64
2022/07/11 06:48:39;;;;;;;6.47;2.38;;;;;;;19.07;61.36;102380.78;5076019;28;20052;-65
2022/07/11 06:51:09;;;;;;;5.75;2.83;;;;;;;19.06;61.19;102379.16;5077955;28;20044;-65
2022/07/11 06:53:36;;;;;;;8.20;2.97;;;;;;;19.06;61.35;102385.44;5092128;28;20082;-65
2022/07/11 06:56:05;;;;;;;5.22;2.83;;;;;;;19.04;61.24;102373.97;5070992;28;20072;-65
2022/07/11 06:58:32;;;;;;;6.25;2.25;;;;;;;19.04;61.55;102381.31;5087745;28;20052;-65
2022/07/11 07:01:02;;;;;;;6.90;2.47;;;;;;;19.02;61.37;102373.38;5079879;28;20057;-66
2022/07/11 07:03:31;;;;;;;5.88;2.65;;;;;;;19.03;61.46;102379.66;5082112;28;20072;-66
2022/07/11 07:06:00;;;;;;;3.33;2.28;;;;;;;19.02;61.50;102376.09;5094277;28;20041;-65
2022/07/11 07:08:30;;;;;;;5.18;2.47;;;;;;;19.04;61.57;102381.31;5091091;28;20040;-66
2022/07/11 07:10:59;;;;;;;5.45;2.75;;;;;;;19.03;61.21;102377.75;5080040;28;20048;-66
2022/07/11 07:13:34;;;;;;;6.20;2.20;;;;;;;19.04;61.42;102381.31;5091207;28;20041;-67
2022/07/11 07:16:02;;;;;;;4.15;2.50;;;;;;;19.04;61.21;102370.41;5079952;28;20094;-65
2022/07/11 07:18:30;;;;;;;3.65;2.20;;;;;;;19.04;61.16;102368.50;5071509;28;20041;-65
2022/07/11 07:20:58;;;;;;;5.32;2.50;;;;;;;19.06;60.73;102371.00;5076812;28;20056;-65
2022/07/11 07:23:26;;;;;;;3.28;2.10;;;;;;;19.06;61.09;102369.09;5079752;28;20068;-65
2022/07/11 07:25:55;;;;;;;3.92;2.08;;;;;;;19.07;61.32;102375.34;5072920;28;20087;-64
2022/07/11 07:28:23;;;;;;;2.45;1.70;;;;;;;19.07;60.87;102373.44;5065516;28;20576;-64
2022/07/11 07:30:51;;;;;;;3.03;2.05;;;;;;;19.08;61.14;102377.00;5087887;28;20052;-65
2022/07/11 07:33:19;;;;;;;4.22;2.33;;;;;;;19.08;61.08;102363.38;5080310;28;20059;-65
2022/07/11 07:36:07;;;;;;;3.47;2.10;;;;;;;18.98;60.69;102344.94;5079124;28;20168;-64
2022/07/11 07:38:35;;;;;;;4.47;2.25;;;;;;;19.09;60.64;102362.31;5087739;28;20052;-64
2022/07/11 07:41:04;;;;;;;3.30;2.05;;;;;;;19.09;60.64;102363.13;5071780;28;20517;-65
2022/07/11 07:43:32;;;;;;;5.05;1.90;;;;;;;19.09;60.64;102363.13;5069991;28;20378;-64
2022/07/11 07:46:00;;;;;;;3.42;2.15;;;;;;;19.10;60.83;102363.97;5078895;28;20075;-65
2022/07/11 07:48:28;;;;;;;5.90;2.35;;;;;;;19.10;60.69;102356.59;5069634;28;20053;-65
2022/07/11 07:51:01;;;;;;;3.65;2.00;;;;;;;19.10;60.51;102361.22;5095247;28;20053;-64
2022/07/11 07:53:29;;;;;;;3.92;1.85;;;;;;;19.11;60.62;102365.63;4718326;28;10000776;-69
2022/07/11 07:55:56;;;;;;;4.63;2.20;;;;;;;19.10;60.55;102372.97;5079202;28;20048;-64
2022/07/11 07:58:25;;;;;;;3.28;2.47;;;;;;;19.03;60.23;102363.28;5083935;28;20193;-65
2022/07/11 08:03:39;;;;;;;3.45;1.63;;;;;;;19.00;61.33;102364.59;5088821;28;20421;-64
2022/07/11 08:06:07;;;;;;;2.53;2.10;;;;;;;19.07;61.17;102378.06;5083971;28;20044;-64
2022/07/11 08:08:34;;;;;;;3.35;1.83;;;;;;;19.08;61.12;102382.44;5089221;28;20044;-64
2022/07/11 08:11:02;;;;;;;3.45;2.13;;;;;;;19.05;61.26;102380.22;5105868;28;20071;-64
2022/07/11 08:13:52;;;;;;;2.55;2.08;;;;;;;19.08;61.14;102393.34;5088284;28;20075;-64
2022/07/11 08:16:20;;;;;;;4.43;2.70;;;;;;;18.97;61.33;102369.72;5072424;28;20045;-65
2022/07/11 08:18:48;;;;;;;5.63;2.70;;;;;;;19.06;61.46;102385.44;5105243;28;20112;-63
2022/07/11 08:21:16;;;;;;;3.70;2.50;;;;;;;19.06;61.40;102385.44;5103249;28;20052;-63
2022/07/11 08:23:43;;;;;;;6.15;2.58;;;;;;;19.07;61.38;102389.78;5100963;28;20048;-63
2022/07/11 08:26:11;;;;;;;3.33;2.50;;;;;;;19.07;61.42;102388.97;5105721;28;20048;-63
2022/07/11 08:28:39;;;;;;;5.20;2.30;;;;;;;19.08;61.17;102385.16;5081042;28;20470;-63
2022/07/11 08:31:09;;;;;;;4.22;2.65;;;;;;;19.08;61.32;102383.28;5098304;28;20052;-63
2022/07/11 08:33:37;;;;;;;3.15;2.20;;;;;;;19.08;61.27;102393.34;5086818;28;20059;-63
2022/07/11 08:36:06;;;;;;;3.50;2.92;;;;;;;18.96;61.10;102370.78;5078647;28;20590;-63
2022/07/11 08:38:34;;;;;;;3.25;2.22;;;;;;;19.09;61.37;102384.09;5079690;28;20041;-63
2022/07/11 08:41:02;;;;;;;2.72;2.17;;;;;;;19.06;61.21;102371.00;5089733;28;20148;-63
2022/07/11 08:43:31;;;;;;;2.92;2.17;;;;;;;19.12;61.10;102386.34;5081133;28;20062;-63
2022/07/11 08:46:00;;;;;;;4.00;2.38;;;;;;;19.12;60.88;102383.63;5094363;28;20052;-64
2022/07/11 08:48:32;;;;;;;2.67;2.10;;;;;;;19.13;60.68;102379.81;5097302;28;20117;-64
2022/07/11 08:51:00;;;;;;;2.55;2.10;;;;;;;19.14;60.60;102373.31;5094708;28;20052;-64
2022/07/11 08:53:28;;;;;;;2.92;2.10;;;;;;;19.14;60.58;102376.84;5087552;28;20049;-65
2022/07/11 08:55:58;;;;;;;3.03;2.10;;;;;;;19.15;60.35;102383.97;5083348;28;20117;-64
2022/07/11 08:58:26;;;;;;;3.33;2.20;;;;;;;19.15;60.43;102374.97;5084007;28;20052;-65
2022/07/11 09:00:54;;;;;;;2.72;2.05;;;;;;;19.17;60.51;102375.56;5090618;28;20153;-64
2022/07/11 09:03:22;;;;;;;3.08;2.05;;;;;;;19.17;60.45;102379.09;5097068;28;20044;-64
2022/07/11 09:05:52;;;;;;;2.80;2.00;;;;;;;19.18;60.40;102379.94;5097796;28;20044;-64
2022/07/11 09:08:27;;;;;;;2.80;2.00;;;;;;;19.17;60.59;102376.38;5078754;28;20044;-64
2022/07/11 09:10:55;;;;;;;2.47;1.95;;;;;;;19.18;60.77;102374.47;5087510;28;20086;-63
2022/07/11 09:13:28;;;;;;;3.63;2.35;;;;;;;19.17;60.96;102372.81;5075717;28;20048;-64
2022/07/11 09:16:02;;;;;;;3.28;1.98;;;;;;;19.18;61.07;102367.13;5089468;28;20044;-64
2022/07/11 09:18:31;;;;;;;3.65;2.00;;;;;;;19.19;60.94;102368.78;5087993;28;20486;-64
2022/07/11 09:26:38;;;;;;;2.65;1.90;;;;;;;19.24;61.06;102367.22;5091713;28;20055;-64
2022/07/11 09:29:09;;;;;;;2.50;2.00;;;;;;;19.26;60.97;102373.28;5086872;28;20048;-64
2022/07/11 09:31:39;;;;;;;4.13;1.85;;;;;;;19.26;60.76;102362.38;5096209;28;20070;-65
2022/07/11 09:34:09;;;;;;;3.78;2.00;;;;;;;19.28;60.50;102366.50;5068861;28;20052;-64
2022/07/11 09:36:44;;;;;;;3.88;2.40;;;;;;;19.30;61.03;102366.25;5090010;28;20067;-64
2022/07/11 09:39:15;;;;;;;5.25;2.95;;;;;;;19.31;60.74;102359.75;5084918;28;20052;-63
2022/07/11 09:41:44;;;;;;;4.45;2.20;;;;;;;19.32;60.79;102367.66;5082739;28;20106;-63
2022/07/11 09:44:16;;;;;;;6.90;3.33;;;;;;;19.34;60.78;102362.81;5078059;28;20052;-65
2022/07/11 09:46:46;;;;;;;2.97;1.85;;;;;;;19.36;60.75;102368.00;5077459;28;20053;-65
2022/07/11 09:49:15;;;;;;;4.38;2.40;;;;;;;19.38;60.81;102363.97;5082094;28;20048;-67
2022/07/11 09:51:45;;;;;;;3.17;2.30;;;;;;;19.39;60.75;102362.06;5082457;28;20056;-67
2022/07/11 09:54:12;;;;;;;3.35;2.38;;;;;;;19.41;60.79;102363.47;5085979;28;20516;-66
2022/07/11 09:56:42;;;;;;;5.25;2.50;;;;;;;19.43;60.89;102364.06;4728826;28;10000178;-65
2022/07/11 09:59:25;;;;;;;5.40;2.63;;;;;;;19.42;60.84;102350.69;5073643;28;20047;-65
2022/07/11 10:01:53;;;;;;;3.90;2.70;;;;;;;19.45;60.92;102356.47;5087898;28;20063;-65
2022/07/11 10:04:22;;;;;;;5.68;2.63;;;;;;;19.47;60.65;102362.50;5078056;28;20048;-65
2022/07/11 10:06:51;;;;;;;4.50;3.03;;;;;;;19.49;60.61;102365.81;5078506;28;20132;-66
2022/07/11 10:09:19;;;;;;;5.32;3.28;;;;;;;19.49;60.77;102360.38;5079138;28;20075;-66
2022/07/11 10:11:47;;;;;;;4.53;3.17;;;;;;;19.52;60.92;102361.81;5073776;28;20107;-66
2022/07/11 10:14:15;;;;;;;8.10;4.03;;;;;;;19.52;61.03;102360.97;5082185;28;20059;-65
2022/07/11 10:16:53;;;;;;;5.30;3.05;;;;;;;19.53;60.53;102362.63;5076902;28;20044;-66
2022/07/11 10:19:36;;;;;;;4.97;3.20;;;;;;;19.55;60.57;102363.22;4724730;28;9999681;-66
2022/07/11 10:22:16;;;;;;;5.78;3.00;;;;;;;19.56;60.72;102364.88;5087777;28;20357;-67
2022/07/11 10:24:53;;;;;;;5.00;3.00;;;;;;;19.58;60.78;102363.56;5095430;28;20064;-66
2022/07/11 10:27:30;;;;;;;8.18;3.03;;;;;;;19.59;60.61;102370.66;5088300;28;20059;-66
2022/07/11 10:30:03;;;;;;;4.88;3.17;;;;;;;19.60;60.53;102361.41;5074478;28;20063;-66
2022/07/11 10:32:31;;;;;;;6.30;3.25;;;;;;;19.62;60.81;102372.06;5088341;28;20118;-66
2022/07/11 10:35:10;;;;;;;5.95;3.45;;;;;;;19.62;60.74;102369.34;5097708;28;20098;-66
2022/07/11 10:37:51;;;;;;;4.85;3.20;;;;;;;19.63;60.63;102371.84;5098204;28;20056;-66
2022/07/11 10:40:45;;;;;;;6.03;3.33;;;;;;;19.66;60.86;102370.50;5091028;28;20044;-66
2022/07/11 10:43:14;;;;;;;5.65;3.10;;;;;;;19.66;60.60;102374.06;5077684;28;20098;-66
2022/07/11 10:46:07;;;;;;;5.80;3.42;;;;;;;19.66;60.66;102363.16;5078947;28;20087;-66
2022/07/11 10:48:52;;;;;;;5.90;3.08;;;;;;;19.67;60.78;102364.81;5065518;28;20041;-65
2022/07/11 10:51:27;;;;;;;4.05;3.35;;;;;;;19.72;60.47;102366.81;5090310;28;20531;-67
2022/07/11 10:54:11;;;;;;;4.60;2.80;;;;;;;19.73;60.41;102372.00;5078673;28;20106;-66
2022/07/11 10:56:56;;;;;;;4.35;2.92;;;;;;;19.67;60.61;102364.00;5080517;28;20080;-66
2022/07/11 10:59:24;;;;;;;7.65;3.33;;;;;;;19.75;60.65;102372.59;5088740;28;20173;-66
2022/07/11 11:02:14;;;;;;;5.57;3.97;;;;;;;19.77;60.27;102373.19;5081525;28;20048;-67
2022/07/11 11:04:47;;;;;;;4.32;3.00;;;;;;;19.78;60.51;102365.81;5094940;28;20048;-66
2022/07/11 11:07:32;;;;;;;5.05;3.13;;;;;;;19.80;60.41;102371.84;5104506;28;20063;-66
2022/07/11 11:10:03;;;;;;;4.88;3.17;;;;;;;19.81;60.50;102374.34;5096562;28;20044;-66
2022/07/11 11:13:09;;;;;;;4.57;3.40;;;;;;;19.83;60.56;102374.09;5093692;28;20048;-66
2022/07/11 11:15:41;;;;;;;4.90;3.00;;;;;;;19.85;60.60;102376.56;5096284;28;20063;-66
2022/07/11 11:18:33;;;;;;;7.18;3.55;;;;;;;19.86;60.79;102381.78;5094191;28;20048;-66
2022/07/11 11:21:22;;;;;;;5.07;3.88;;;;;;;19.87;60.49;102377.16;5087309;28;20116;-66
2022/07/11 11:24:05;;;;;;;4.00;3.08;;;;;;;19.90;60.25;102379.38;5085195;28;20084;-65
2022/07/11 11:26:49;;;;;;;4.03;2.90;;;;;;;19.92;60.35;102374.50;5079550;28;20184;-66
2022/07/11 11:29:25;;;;;;;5.40;2.78;;;;;;;19.93;60.28;102371.53;5083603;28;20094;-65
2022/07/11 11:31:55;;;;;;;6.18;3.25;;;;;;;19.96;60.30;102376.50;5089976;28;20074;-66
2022/07/11 11:34:24;;;;;;;6.82;3.67;;;;;;;19.96;60.27;102373.78;5102954;28;20071;-65
2022/07/11 11:36:54;;;;;;;6.10;2.95;;;;;;;19.99;60.25;102376.00;5076374;28;20406;-66
2022/07/11 11:39:23;;;;;;;5.38;3.72;;;;;;;20.00;60.39;102374.94;5089857;28;20051;-66
2022/07/11 11:41:52;;;;;;;6.28;3.88;;;;;;;20.00;60.71;102369.47;5106364;28;20044;-67
2022/07/11 11:44:20;;;;;;;8.13;3.78;;;;;;;20.02;60.60;102371.97;5079166;28;20099;-67
2022/07/11 11:46:52;;;;;;;6.35;3.45;;;;;;;20.04;60.47;102369.81;5084996;28;20052;-66